Time;durP1;ratioP1;P1;durP2;ratioP2;P2;SDS_P1;SDS_P2;PMS_P1;PMS_P2;Temp;Humidity;BMP_temperature;BMP_pressure;BME280_temperature;BME280_humidity;BME280_pressure;Samples;Min_cycle;Max_cycle;Signal;HPM_P1;HPM_P2
2024/03/28 00:01:59;;;;;;;2.00;1.80;;;16.00;58.20;;;;;;5031845;28;20200;-64
2024/03/28 00:04:25;;;;;;;1.70;1.58;;;16.00;58.20;;;;;;5030835;28;20202;-64
2024/03/28 00:06:51;;;;;;;2.75;2.03;;;16.00;58.30;;;;;;5031728;28;20183;-64
2024/03/28 00:09:16;;;;;;;2.00;1.80;;;15.90;58.20;;;;;;5031365;28;20642;-65
2024/03/28 00:11:42;;;;;;;2.17;1.80;;;15.90;58.10;;;;;;5030945;28;20211;-64
2024/03/28 00:14:07;;;;;;;2.00;1.80;;;15.90;58.10;;;;;;5031399;28;20211;-65
2024/03/28 00:16:33;;;;;;;2.85;2.00;;;15.90;58.00;;;;;;5031498;28;20180;-64
2024/03/28 00:18:58;;;;;;;3.15;2.00;;;15.90;58.00;;;;;;5030823;28;20179;-64
2024/03/28 00:21:24;;;;;;;2.25;2.05;;;15.90;58.10;;;;;;5031289;28;20183;-65
2024/03/28 00:23:49;;;;;;;2.47;2.05;;;15.90;58.00;;;;;;5031835;28;20167;-65
2024/03/28 00:26:15;;;;;;;2.22;2.03;;;15.90;58.00;;;;;;5030717;28;20168;-65
2024/03/28 00:28:41;;;;;;;2.10;1.98;;;15.80;58.60;;;;;;5031604;28;20194;-65
2024/03/28 00:31:07;;;;;;;2.30;2.10;;;15.80;58.50;;;;;;5031239;28;20168;-65
2024/03/28 00:33:32;;;;;;;2.25;2.05;;;15.80;58.00;;;;;;5035254;28;20254;-66
2024/03/28 00:35:58;;;;;;;2.70;2.13;;;15.80;57.90;;;;;;5035289;28;20199;-65
2024/03/28 00:38:23;;;;;;;2.88;2.35;;;15.80;57.90;;;;;;5034431;28;20265;-66
2024/03/28 00:40:53;;;;;;;3.00;2.13;;;15.80;57.90;;;;;;5035289;28;20700;-63
2024/03/28 00:43:19;;;;;;;2.17;1.98;;;15.80;57.90;;;;;;5034909;28;20175;-64
2024/03/28 00:45:44;;;;;;;2.28;2.08;;;15.80;57.80;;;;;;5034686;28;20187;-65
2024/03/28 00:48:10;;;;;;;2.13;1.85;;;15.70;57.80;;;;;;5034925;28;20180;-64
2024/03/28 00:50:36;;;;;;;2.65;1.98;;;15.80;57.90;;;;;;5035132;28;20643;-64
2024/03/28 00:53:02;;;;;;;2.50;1.83;;;15.70;57.80;;;;;;5034606;28;20239;-65
2024/03/28 00:55:28;;;;;;;1.98;1.88;;;15.70;57.80;;;;;;5035009;28;20179;-65
2024/03/28 00:57:53;;;;;;;3.50;2.05;;;15.70;57.80;;;;;;5035150;28;20241;-65
2024/03/28 01:00:19;;;;;;;2.25;2.05;;;15.70;57.80;;;;;;5033981;28;20171;-65
2024/03/28 01:02:45;;;;;;;2.45;2.22;;;15.70;57.80;;;;;;5033733;28;20175;-64
2024/03/28 01:05:10;;;;;;;2.92;1.80;;;15.70;57.80;;;;;;5034316;28;20532;-64
2024/03/28 01:07:36;;;;;;;2.25;2.05;;;15.80;57.80;;;;;;5034327;28;20512;-64
2024/03/28 01:10:02;;;;;;;2.35;2.15;;;15.70;57.70;;;;;;5034500;28;20718;-64
2024/03/28 01:12:27;;;;;;;2.22;2.03;;;15.70;57.80;;;;;;5034399;28;20829;-64
2024/03/28 01:14:53;;;;;;;2.47;2.03;;;15.70;57.80;;;;;;5033787;28;20282;-63
2024/03/28 01:17:18;;;;;;;2.60;2.30;;;15.70;57.80;;;;;;5034345;28;20251;-63
2024/03/28 01:19:44;;;;;;;2.42;2.22;;;15.70;57.80;;;;;;5034403;28;20179;-63
2024/03/28 01:22:09;;;;;;;2.33;2.03;;;15.70;57.80;;;;;;5033447;28;20179;-64
2024/03/28 01:24:35;;;;;;;2.38;2.20;;;15.60;57.70;;;;;;5034621;28;20180;-64
2024/03/28 01:27:00;;;;;;;2.30;2.10;;;15.70;57.80;;;;;;5034451;28;20176;-63
2024/03/28 01:29:26;;;;;;;2.17;2.00;;;15.60;57.70;;;;;;5033451;28;20178;-64
2024/03/28 01:31:51;;;;;;;2.38;2.17;;;15.60;57.70;;;;;;5034264;28;20203;-64
2024/03/28 01:34:17;;;;;;;2.58;2.38;;;15.60;57.70;;;;;;5033894;28;20207;-65
2024/03/28 01:36:42;;;;;;;2.53;2.08;;;15.60;57.70;;;;;;5033521;28;20198;-64
2024/03/28 01:39:08;;;;;;;2.30;2.10;;;15.60;57.70;;;;;;5034089;28;20544;-64
2024/03/28 01:41:34;;;;;;;2.70;2.40;;;15.60;57.70;;;;;;5033397;28;20219;-64
2024/03/28 01:43:59;;;;;;;2.53;2.03;;;15.60;57.70;;;;;;5033561;28;20186;-63
2024/03/28 01:46:28;;;;;;;2.05;1.85;;;15.60;57.70;;;;;;5033806;28;20176;-64
2024/03/28 01:48:54;;;;;;;2.78;2.00;;;15.60;57.70;;;;;;5031905;28;20638;-64
2024/03/28 01:51:20;;;;;;;2.00;1.90;;;15.60;57.70;;;;;;5033652;28;20175;-64
2024/03/28 01:53:46;;;;;;;2.40;1.75;;;15.60;57.80;;;;;;5032884;28;20215;-64
2024/03/28 01:56:12;;;;;;;3.30;2.10;;;15.60;57.80;;;;;;5032964;28;20174;-64
2024/03/28 01:58:38;;;;;;;2.10;1.77;;;15.60;57.80;;;;;;5032778;28;20180;-64
2024/03/28 02:01:03;;;;;;;2.00;1.77;;;15.60;57.80;;;;;;5032617;28;20237;-63
2024/03/28 02:03:29;;;;;;;3.40;2.00;;;15.60;57.80;;;;;;5031491;28;20249;-63
2024/03/28 02:05:54;;;;;;;2.13;1.88;;;15.60;57.80;;;;;;5033781;28;20582;-64
2024/03/28 02:08:20;;;;;;;2.05;1.95;;;15.60;57.90;;;;;;5033092;28;20757;-65
2024/03/28 02:10:45;;;;;;;1.70;1.60;;;15.60;57.90;;;;;;5032984;28;20190;-64
2024/03/28 02:13:12;;;;;;;2.13;2.00;;;15.60;57.90;;;;;;5031825;28;20302;-63
2024/03/28 02:15:38;;;;;;;4.55;2.10;;;15.60;57.90;;;;;;5032357;28;20261;-63
2024/03/28 02:18:04;;;;;;;2.22;1.85;;;15.60;58.00;;;;;;5032644;28;20213;-64
2024/03/28 02:20:29;;;;;;;1.80;1.70;;;15.60;58.00;;;;;;5033429;28;20287;-63
2024/03/28 02:22:55;;;;;;;1.70;1.60;;;15.60;58.00;;;;;;5033523;28;20668;-64
2024/03/28 02:25:20;;;;;;;2.90;2.28;;;15.60;58.00;;;;;;5032332;28;20709;-63
2024/03/28 02:27:46;;;;;;;4.22;1.77;;;15.60;58.00;;;;;;5033279;28;20317;-63
2024/03/28 02:30:12;;;;;;;3.33;1.88;;;15.50;58.00;;;;;;5032906;28;20278;-64
2024/03/28 02:32:38;;;;;;;1.60;1.50;;;15.50;58.00;;;;;;5032356;28;20211;-64
2024/03/28 02:35:04;;;;;;;2.40;1.60;;;15.50;58.00;;;;;;5033085;28;20178;-64
2024/03/28 02:37:30;;;;;;;3.30;1.85;;;15.60;58.20;;;;;;5032750;28;20194;-64
2024/03/28 02:39:56;;;;;;;1.75;1.65;;;15.60;58.10;;;;;;5032076;28;20268;-64
2024/03/28 02:42:21;;;;;;;1.70;1.60;;;15.60;58.10;;;;;;5032960;28;20282;-65
2024/03/28 02:44:47;;;;;;;1.60;1.50;;;15.50;58.20;;;;;;5032355;28;20647;-64
2024/03/28 02:47:13;;;;;;;1.50;1.40;;;15.50;58.10;;;;;;5032541;28;20626;-64
2024/03/28 02:49:39;;;;;;;2.03;1.50;;;15.50;58.90;;;;;;5033051;28;20203;-64
2024/03/28 02:52:05;;;;;;;1.58;1.48;;;15.60;58.20;;;;;;5032239;28;20563;-64
2024/03/28 02:54:31;;;;;;;1.52;1.42;;;15.50;58.20;;;;;;5030595;28;20222;-65
2024/03/28 02:57:01;;;;;;;2.95;1.73;;;15.50;58.20;;;;;;5032773;28;20171;-65
2024/03/28 02:59:26;;;;;;;1.63;1.52;;;15.50;58.20;;;;;;5031704;28;20184;-65
2024/03/28 03:01:52;;;;;;;1.52;1.40;;;15.50;58.20;;;;;;5032606;28;20230;-64
2024/03/28 03:04:18;;;;;;;1.75;1.65;;;15.50;58.20;;;;;;5032625;28;20163;-64
2024/03/28 03:06:43;;;;;;;1.70;1.60;;;15.50;58.20;;;;;;5032227;28;20197;-67
2024/03/28 03:09:09;;;;;;;1.77;1.67;;;15.50;58.30;;;;;;5032403;28;20835;-65
2024/03/28 03:11:37;;;;;;;1.45;1.30;;;15.50;58.30;;;;;;5032705;28;20569;-65
2024/03/28 03:14:03;;;;;;;1.40;1.30;;;15.50;58.20;;;;;;5031832;28;20269;-64
2024/03/28 03:16:28;;;;;;;1.95;1.77;;;15.50;58.20;;;;;;5032099;28;20175;-65
2024/03/28 03:18:54;;;;;;;1.60;1.40;;;15.40;58.20;;;;;;5032538;28;20172;-65
2024/03/28 03:21:19;;;;;;;1.50;1.40;;;15.50;58.40;;;;;;5031528;28;20168;-65
2024/03/28 03:23:49;;;;;;;1.90;1.70;;;15.50;58.40;;;;;;5032419;28;20529;-66
2024/03/28 03:26:24;;;;;;;1.90;1.40;;;15.50;58.30;;;;;;5031871;28;20180;-64
2024/03/28 03:34:37;;;;;;;1.45;1.35;;;15.50;58.50;;;;;;5031071;28;20277;-66
2024/03/28 03:37:09;;;;;;;2.13;1.83;;;15.50;58.40;;;;;;5032144;28;20229;-65
2024/03/28 03:39:35;;;;;;;2.53;1.50;;;15.50;58.40;;;;;;5032078;28;20194;-65
2024/03/28 03:42:00;;;;;;;3.33;1.65;;;15.40;58.40;;;;;;5031059;28;20592;-65
2024/03/28 03:44:26;;;;;;;1.48;1.38;;;15.50;58.50;;;;;;5031847;28;20172;-65
2024/03/28 03:46:51;;;;;;;1.90;1.80;;;15.40;58.40;;;;;;5032030;28;20171;-64
2024/03/28 03:49:17;;;;;;;1.63;1.52;;;15.50;58.50;;;;;;5030975;28;20229;-65
2024/03/28 03:51:42;;;;;;;1.55;1.30;;;15.40;58.40;;;;;;5031801;28;20241;-65
2024/03/28 03:54:08;;;;;;;1.60;1.50;;;15.40;58.40;;;;;;5031443;28;20276;-65
2024/03/28 03:56:33;;;;;;;2.15;1.20;;;15.40;58.60;;;;;;5031163;28;20178;-66
2024/03/28 03:58:59;;;;;;;1.50;1.40;;;15.40;58.50;;;;;;5031719;28;20188;-65
2024/03/28 04:01:25;;;;;;;2.15;1.58;;;15.40;58.50;;;;;;5031500;28;20175;-65
2024/03/28 04:03:50;;;;;;;1.63;1.52;;;15.40;58.50;;;;;;5031171;28;20614;-65
2024/03/28 04:06:16;;;;;;;1.73;1.55;;;15.40;58.50;;;;;;5033514;28;20214;-65
2024/03/28 04:08:42;;;;;;;2.25;1.30;;;15.40;58.50;;;;;;5035904;28;20201;-65
2024/03/28 04:11:07;;;;;;;1.60;1.50;;;15.40;58.60;;;;;;5035260;28;20172;-65
2024/03/28 04:13:33;;;;;;;1.95;1.40;;;15.40;58.60;;;;;;5035480;28;20273;-65
2024/03/28 04:15:58;;;;;;;1.42;1.33;;;15.40;58.60;;;;;;5035656;28;20548;-65
2024/03/28 04:18:24;;;;;;;1.63;1.50;;;15.40;58.60;;;;;;5034791;28;20708;-64
2024/03/28 04:20:50;;;;;;;2.15;1.55;;;15.40;58.60;;;;;;5035525;28;20190;-64
2024/03/28 04:23:16;;;;;;;2.00;1.35;;;15.40;58.60;;;;;;5034505;28;20179;-64
2024/03/28 04:25:41;;;;;;;2.00;1.70;;;15.40;58.60;;;;;;5035848;28;20776;-64
2024/03/28 04:28:07;;;;;;;1.45;1.35;;;15.40;58.70;;;;;;5035327;28;20180;-65
2024/03/28 04:30:36;;;;;;;2.20;1.20;;;15.40;58.60;;;;;;5034790;28;20180;-66
2024/03/28 04:33:02;;;;;;;1.60;1.48;;;15.40;58.70;;;;;;5035257;28;20253;-65
2024/03/28 04:35:27;;;;;;;1.30;1.20;;;15.30;58.60;;;;;;5034828;28;20187;-64
2024/03/28 04:37:53;;;;;;;1.85;1.50;;;15.40;58.70;;;;;;5034533;28;20188;-64
2024/03/28 04:40:19;;;;;;;1.45;1.23;;;15.30;58.60;;;;;;5035089;28;20255;-64
2024/03/28 04:42:50;;;;;;;1.85;1.67;;;15.30;58.70;;;;;;5035246;28;20179;-63
2024/03/28 04:45:17;;;;;;;1.50;1.40;;;15.30;58.60;;;;;;5034337;28;20207;-64
2024/03/28 04:47:43;;;;;;;1.60;1.50;;;15.30;58.70;;;;;;5035149;28;20179;-64
2024/03/28 04:50:09;;;;;;;2.08;1.40;;;15.30;58.70;;;;;;5034689;28;20183;-64
2024/03/28 04:52:34;;;;;;;1.65;1.55;;;15.30;58.80;;;;;;5034337;28;20235;-64
2024/03/28 04:55:00;;;;;;;1.50;1.40;;;15.30;58.80;;;;;;5035139;28;20176;-64
2024/03/28 04:57:25;;;;;;;1.73;1.63;;;15.30;58.80;;;;;;5034789;28;20238;-64
2024/03/28 04:59:51;;;;;;;1.40;1.30;;;15.30;58.80;;;;;;5034101;28;20233;-64
2024/03/28 05:02:16;;;;;;;2.10;1.33;;;15.30;58.70;;;;;;5034731;28;20180;-64
2024/03/28 05:04:42;;;;;;;1.95;1.50;;;15.30;58.80;;;;;;5034791;28;20543;-65
2024/03/28 05:07:07;;;;;;;1.40;1.30;;;15.30;58.70;;;;;;5033702;28;20639;-64
2024/03/28 05:09:33;;;;;;;1.33;1.23;;;15.30;58.70;;;;;;5034641;28;20183;-65
2024/03/28 05:11:59;;;;;;;1.60;1.50;;;15.30;58.80;;;;;;5034812;28;20180;-64
2024/03/28 05:14:24;;;;;;;1.27;1.27;;;15.30;58.80;;;;;;5033652;28;20302;-64
2024/03/28 05:16:51;;;;;;;1.42;1.33;;;15.30;58.80;;;;;;5034263;28;20203;-64
2024/03/28 05:19:17;;;;;;;1.90;1.80;;;15.30;58.80;;;;;;5033906;28;20179;-64
2024/03/28 05:21:42;;;;;;;2.00;1.50;;;15.30;58.80;;;;;;5034041;28;20662;-64
2024/03/28 05:24:08;;;;;;;1.45;1.35;;;15.30;58.80;;;;;;5034125;28;20655;-63
2024/03/28 05:26:35;;;;;;;3.70;2.05;;;15.30;58.80;;;;;;5033733;28;20183;-64
2024/03/28 05:29:00;;;;;;;1.80;1.52;;;15.20;58.70;;;;;;5034434;28;20187;-64
2024/03/28 05:31:28;;;;;;;1.95;1.30;;;15.30;58.80;;;;;;5034163;28;20214;-64
2024/03/28 05:33:54;;;;;;;1.40;1.30;;;15.30;58.80;;;;;;5033427;28;20319;-64
2024/03/28 05:36:20;;;;;;;1.40;1.30;;;15.30;59.40;;;;;;5034146;28;20362;-64
2024/03/28 05:38:46;;;;;;;2.03;1.30;;;15.30;58.80;;;;;;5034422;28;20176;-64
2024/03/28 05:41:11;;;;;;;1.85;1.40;;;15.30;59.50;;;;;;5032949;28;20219;-64
2024/03/28 05:43:37;;;;;;;1.38;1.27;;;15.30;58.90;;;;;;5034236;28;20618;-64
2024/03/28 05:46:03;;;;;;;1.75;1.58;;;15.30;58.80;;;;;;5034163;28;20222;-63
2024/03/28 05:48:28;;;;;;;1.30;1.20;;;15.20;58.80;;;;;;5032970;28;20263;-64
2024/03/28 05:50:54;;;;;;;1.50;1.40;;;15.20;58.80;;;;;;5033954;28;20184;-64
2024/03/28 05:53:19;;;;;;;1.60;1.50;;;15.30;58.90;;;;;;5033668;28;20208;-64
2024/03/28 05:55:45;;;;;;;1.50;1.40;;;15.30;58.90;;;;;;5033216;28;20179;-64
2024/03/28 05:58:10;;;;;;;1.83;1.58;;;15.30;58.90;;;;;;5033670;28;20207;-64
2024/03/28 06:00:36;;;;;;;1.50;1.40;;;15.30;58.80;;;;;;5033770;28;20175;-64
2024/03/28 06:03:04;;;;;;;1.80;1.15;;;15.30;58.80;;;;;;5032951;28;20171;-63
2024/03/28 06:05:29;;;;;;;1.60;1.50;;;15.40;58.80;;;;;;5033291;28;20182;-64
2024/03/28 06:07:55;;;;;;;1.77;1.67;;;15.30;58.80;;;;;;5033735;28;20179;-64
2024/03/28 06:10:21;;;;;;;1.55;1.35;;;15.30;58.80;;;;;;5032681;28;20180;-65
2024/03/28 06:12:47;;;;;;;1.45;1.35;;;15.30;58.80;;;;;;5033761;28;20286;-64
2024/03/28 06:15:12;;;;;;;1.75;1.55;;;15.40;58.80;;;;;;5033135;28;20259;-64
2024/03/28 06:17:38;;;;;;;1.92;1.60;;;15.30;58.80;;;;;;5032782;28;20179;-64
2024/03/28 06:20:05;;;;;;;2.35;1.63;;;15.30;58.80;;;;;;5033306;28;20187;-65
2024/03/28 06:22:30;;;;;;;1.35;1.25;;;15.30;58.80;;;;;;5033268;28;20180;-64
2024/03/28 06:24:56;;;;;;;1.98;1.80;;;15.30;58.80;;;;;;5032293;28;20622;-65
2024/03/28 06:27:22;;;;;;;1.55;1.45;;;15.30;58.90;;;;;;5033113;28;20187;-66
2024/03/28 06:29:50;;;;;;;2.63;1.73;;;15.30;58.80;;;;;;5032953;28;20643;-65
2024/03/28 06:32:24;;;;;;;1.63;1.50;;;15.30;59.40;;;;;;5032836;28;20544;-66
2024/03/28 06:34:54;;;;;;;2.20;1.40;;;15.30;58.70;;;;;;5033301;28;20208;-65
2024/03/28 06:37:19;;;;;;;1.33;1.20;;;15.40;58.70;;;;;;5032120;28;20184;-65
2024/03/28 06:39:46;;;;;;;2.25;1.60;;;15.40;58.80;;;;;;5033016;28;20668;-65
2024/03/28 06:42:11;;;;;;;1.30;1.20;;;15.40;58.80;;;;;;5032458;28;20196;-65
2024/03/28 06:44:37;;;;;;;1.75;1.30;;;15.40;58.80;;;;;;5032154;28;20275;-65
2024/03/28 06:47:04;;;;;;;1.55;1.45;;;15.40;58.80;;;;;;5032647;28;20183;-65
2024/03/28 06:49:30;;;;;;;2.45;1.58;;;15.40;58.70;;;;;;5032681;28;20180;-65
2024/03/28 06:51:55;;;;;;;1.40;1.30;;;15.40;58.60;;;;;;5031918;28;20199;-65
2024/03/28 06:54:21;;;;;;;1.90;1.48;;;15.40;58.70;;;;;;5032353;28;20238;-66
2024/03/28 06:56:46;;;;;;;3.20;1.30;;;15.50;58.70;;;;;;5033035;28;20199;-66
2024/03/28 06:59:15;;;;;;;2.92;1.38;;;15.50;58.70;;;;;;5031454;28;20517;-64
2024/03/28 07:01:43;;;;;;;3.30;1.67;;;15.60;58.70;;;;;;5032567;28;20623;-67
2024/03/28 07:04:09;;;;;;;1.45;1.35;;;15.70;58.60;;;;;;5032089;28;20245;-70
2024/03/28 07:06:37;;;;;;;2.55;1.20;;;16.00;58.40;;;;;;5031832;28;20181;-65
2024/03/28 07:09:03;;;;;;;1.80;1.30;;;16.10;58.20;;;;;;5032591;28;20201;-67
2024/03/28 07:11:29;;;;;;;3.28;1.50;;;16.30;58.00;;;;;;5032133;28;20172;-69
2024/03/28 07:13:54;;;;;;;2.08;1.65;;;16.50;57.80;;;;;;5031601;28;20310;-68
2024/03/28 07:16:20;;;;;;;3.10;1.60;;;16.70;57.50;;;;;;5031742;28;20493;-65
2024/03/28 07:18:45;;;;;;;2.65;1.60;;;16.90;57.30;;;;;;5032499;28;20219;-64
2024/03/28 07:21:11;;;;;;;2.40;1.20;;;17.00;56.90;;;;;;5031369;28;20211;-66
2024/03/28 07:23:40;;;;;;;2.22;1.50;;;17.20;56.70;;;;;;5032478;28;20210;-65
2024/03/28 07:26:06;;;;;;;4.80;1.40;;;17.30;56.60;;;;;;5031576;28;20280;-65
2024/03/28 07:28:32;;;;;;;3.55;1.30;;;17.40;56.40;;;;;;5031950;28;20180;-66
2024/03/28 07:30:58;;;;;;;2.13;1.40;;;17.50;56.30;;;;;;5032004;28;20179;-66
2024/03/28 07:33:23;;;;;;;2.55;1.33;;;17.50;56.30;;;;;;5030992;28;20211;-67
2024/03/28 07:35:49;;;;;;;2.30;1.35;;;17.50;56.20;;;;;;5032037;28;20210;-66
2024/03/28 07:38:14;;;;;;;2.63;1.45;;;17.50;56.10;;;;;;5031527;28;20179;-66
2024/03/28 07:40:40;;;;;;;1.33;1.23;;;17.60;56.10;;;;;;5030689;28;20219;-66
2024/03/28 07:43:05;;;;;;;2.72;1.50;;;17.60;56.10;;;;;;5031443;28;20168;-65
2024/03/28 07:45:31;;;;;;;3.17;1.50;;;17.60;56.20;;;;;;5031641;28;20168;-66
2024/03/28 07:47:56;;;;;;;1.80;1.45;;;17.60;56.20;;;;;;5031046;28;20176;-65
2024/03/28 07:50:22;;;;;;;2.67;1.30;;;17.60;56.20;;;;;;5031684;28;20179;-66
2024/03/28 07:52:47;;;;;;;2.38;1.10;;;17.60;56.40;;;;;;5031608;28;20214;-64
2024/03/28 07:55:13;;;;;;;2.65;1.00;;;17.50;56.30;;;;;;5030597;28;20535;-66
2024/03/28 07:57:40;;;;;;;1.88;1.10;;;17.50;56.40;;;;;;5029976;28;20698;-66
2024/03/28 08:00:06;;;;;;;2.05;1.38;;;17.50;56.50;;;;;;5030889;28;20179;-66
2024/03/28 08:02:32;;;;;;;1.17;1.10;;;17.50;56.40;;;;;;5030507;28;20286;-67
2024/03/28 08:04:59;;;;;;;1.38;1.15;;;17.50;56.40;;;;;;5031717;28;20270;-67
2024/03/28 08:07:24;;;;;;;1.98;1.30;;;17.50;56.50;;;;;;5031494;28;20192;-66
2024/03/28 08:09:50;;;;;;;1.80;1.10;;;17.50;56.50;;;;;;5031064;28;20172;-66
2024/03/28 08:12:16;;;;;;;1.17;1.05;;;17.50;56.50;;;;;;5031495;28;20175;-67
2024/03/28 08:14:41;;;;;;;1.25;1.10;;;17.50;56.50;;;;;;5031680;28;20761;-66
2024/03/28 08:17:07;;;;;;;3.10;1.00;;;17.50;56.50;;;;;;5030859;28;20262;-65
2024/03/28 08:19:33;;;;;;;1.73;1.35;;;17.50;56.50;;;;;;5031648;28;20630;-64
2024/03/28 08:22:00;;;;;;;1.58;1.25;;;17.40;56.60;;;;;;5031490;28;20222;-65
2024/03/28 08:24:30;;;;;;;3.25;1.42;;;17.40;56.70;;;;;;5030595;28;20190;-68
2024/03/28 08:26:56;;;;;;;1.35;1.25;;;17.30;56.90;;;;;;5031453;28;20168;-66
2024/03/28 08:29:22;;;;;;;2.72;1.33;;;17.20;57.00;;;;;;5030980;28;20267;-69
2024/03/28 08:31:47;;;;;;;1.58;1.10;;;17.20;57.00;;;;;;5031424;28;20230;-66
2024/03/28 08:34:13;;;;;;;1.92;1.20;;;17.20;57.00;;;;;;5031072;28;20310;-66
2024/03/28 08:36:38;;;;;;;2.03;1.10;;;17.10;56.90;;;;;;5030756;28;20255;-66
2024/03/28 08:39:05;;;;;;;2.97;1.20;;;17.10;56.90;;;;;;5031441;28;20602;-65
2024/03/28 08:41:31;;;;;;;1.35;1.05;;;17.10;56.90;;;;;;5030888;28;20251;-65
2024/03/28 08:43:57;;;;;;;1.35;1.08;;;17.10;56.90;;;;;;5030806;28;20269;-66
2024/03/28 08:46:22;;;;;;;1.80;1.38;;;17.10;56.90;;;;;;5031243;28;20265;-65
2024/03/28 08:48:48;;;;;;;1.80;1.10;;;17.10;56.90;;;;;;5031535;28;20255;-65
2024/03/28 08:51:14;;;;;;;1.50;1.40;;;17.00;56.90;;;;;;5030348;28;20176;-65
2024/03/28 08:53:40;;;;;;;2.15;1.20;;;17.10;56.80;;;;;;5033821;28;20234;-65
2024/03/28 08:56:06;;;;;;;1.83;1.10;;;17.10;56.80;;;;;;5034879;28;20225;-65
2024/03/28 08:58:31;;;;;;;1.20;1.10;;;17.10;56.80;;;;;;5034286;28;20183;-65
2024/03/28 09:00:57;;;;;;;2.40;1.23;;;17.10;56.80;;;;;;5035050;28;20168;-65
2024/03/28 09:03:23;;;;;;;2.13;0.95;;;17.10;56.80;;;;;;5034781;28;20176;-65
2024/03/28 09:05:51;;;;;;;1.30;1.20;;;17.10;56.80;;;;;;5034132;28;20194;-66
2024/03/28 09:08:16;;;;;;;1.75;1.00;;;17.00;56.70;;;;;;5033352;28;20179;-66
2024/03/28 09:10:44;;;;;;;1.58;1.10;;;17.00;56.80;;;;;;5034761;28;20259;-65
2024/03/28 09:13:09;;;;;;;1.52;1.10;;;17.00;56.80;;;;;;5033622;28;20224;-65
2024/03/28 09:15:37;;;;;;;1.13;0.90;;;16.90;56.90;;;;;;5034909;28;20259;-64
2024/03/28 09:18:03;;;;;;;1.20;1.10;;;16.90;56.90;;;;;;5033424;28;20209;-66
2024/03/28 09:20:28;;;;;;;0.82;0.80;;;16.90;56.90;;;;;;5033647;28;20183;-64
2024/03/28 09:22:54;;;;;;;1.65;0.90;;;16.90;57.00;;;;;;5034571;28;20172;-64
2024/03/28 09:25:20;;;;;;;1.40;0.98;;;16.90;57.00;;;;;;5034186;28;20180;-64
2024/03/28 09:27:45;;;;;;;1.33;1.05;;;16.90;57.00;;;;;;5034042;28;20183;-65
2024/03/28 09:30:14;;;;;;;1.83;0.82;;;16.90;57.00;;;;;;5034045;28;20700;-65
2024/03/28 09:32:40;;;;;;;0.80;0.80;;;16.90;57.00;;;;;;5034310;28;20270;-65
2024/03/28 09:35:08;;;;;;;0.80;0.80;;;17.00;57.00;;;;;;5033838;28;20196;-65
2024/03/28 09:37:34;;;;;;;0.95;0.85;;;16.90;57.00;;;;;;5034331;28;20550;-65
2024/03/28 09:39:59;;;;;;;1.27;1.17;;;16.90;57.00;;;;;;5033531;28;20683;-65
2024/03/28 09:42:25;;;;;;;1.25;1.15;;;16.80;57.10;;;;;;5034226;28;20191;-66
2024/03/28 09:44:52;;;;;;;2.00;1.00;;;16.80;57.10;;;;;;5034311;28;20589;-64
2024/03/28 09:47:18;;;;;;;0.80;0.80;;;16.80;57.20;;;;;;5032262;28;20172;-64
2024/03/28 09:49:43;;;;;;;0.82;0.82;;;16.70;57.20;;;;;;5034267;28;20209;-65
2024/03/28 09:52:09;;;;;;;0.80;0.80;;;16.80;57.30;;;;;;5032352;28;20208;-65
2024/03/28 09:54:35;;;;;;;0.90;0.82;;;16.80;57.30;;;;;;5033479;28;20219;-66
2024/03/28 09:57:01;;;;;;;1.15;0.90;;;16.70;57.30;;;;;;5034103;28;20172;-65
2024/03/28 09:59:27;;;;;;;0.80;0.80;;;16.80;57.90;;;;;;5033689;28;20186;-65
2024/03/28 10:01:54;;;;;;;1.23;0.93;;;16.80;57.30;;;;;;5032056;28;20207;-65
2024/03/28 10:04:19;;;;;;;1.08;0.90;;;16.80;57.20;;;;;;5032057;28;20207;-65
2024/03/28 10:06:53;;;;;;;1.00;0.70;;;16.80;57.10;;;;;;5033687;28;20593;-65
2024/03/28 10:09:18;;;;;;;1.10;1.00;;;16.80;57.20;;;;;;5032953;28;20188;-65
2024/03/28 10:11:44;;;;;;;1.98;0.95;;;16.80;57.20;;;;;;5033841;28;20230;-66
2024/03/28 10:14:16;;;;;;;1.38;1.00;;;16.80;57.30;;;;;;5033286;28;20627;-65
2024/03/28 10:16:42;;;;;;;1.10;0.70;;;16.80;57.30;;;;;;5032925;28;20234;-64
2024/03/28 10:19:08;;;;;;;3.22;0.90;;;16.70;57.40;;;;;;5033242;28;20176;-65
2024/03/28 10:21:34;;;;;;;0.90;0.90;;;16.70;57.40;;;;;;5033449;28;20638;-65
2024/03/28 10:24:05;;;;;;;1.42;0.70;;;16.70;57.40;;;;;;5032842;28;20193;-65
2024/03/28 10:26:33;;;;;;;0.80;0.80;;;16.70;57.40;;;;;;5033285;28;20176;-64
2024/03/28 10:28:59;;;;;;;1.45;0.85;;;16.70;57.50;;;;;;5031458;28;20187;-64
2024/03/28 10:31:25;;;;;;;1.30;0.80;;;16.70;57.40;;;;;;5033126;28;20183;-65
2024/03/28 10:33:52;;;;;;;0.80;0.80;;;16.70;57.40;;;;;;5033069;28;20215;-65
2024/03/28 10:36:24;;;;;;;0.93;0.88;;;16.80;57.50;;;;;;5032454;28;20176;-66
2024/03/28 10:39:10;;;;;;;0.88;0.80;;;16.80;57.50;;;;;;5033123;28;20180;-65
2024/03/28 10:41:36;;;;;;;1.27;0.80;;;16.80;57.40;;;;;;5032375;28;20261;-65
2024/03/28 10:44:01;;;;;;;0.68;0.68;;;16.70;57.40;;;;;;5031132;28;20183;-65
2024/03/28 10:46:27;;;;;;;0.70;0.70;;;16.70;57.40;;;;;;5032619;28;20225;-65
2024/03/28 10:49:05;;;;;;;1.20;1.10;;;16.70;57.40;;;;;;5033102;28;20216;-65
2024/03/28 10:51:30;;;;;;;0.70;0.70;;;16.60;57.50;;;;;;5031976;28;20182;-65
2024/03/28 10:54:15;;;;;;;0.98;0.85;;;16.60;57.50;;;;;;5032853;28;20211;-65
2024/03/28 10:56:40;;;;;;;0.82;0.80;;;16.60;57.60;;;;;;5032585;28;20180;-65
2024/03/28 10:59:08;;;;;;;1.73;0.80;;;16.60;57.60;;;;;;5030771;28;20653;-66
2024/03/28 11:01:33;;;;;;;0.70;0.70;;;16.60;57.50;;;;;;5031738;28;20180;-65
2024/03/28 11:04:00;;;;;;;0.70;0.70;;;16.70;57.60;;;;;;5032782;28;20198;-65
2024/03/28 11:06:25;;;;;;;0.60;0.60;;;16.70;57.40;;;;;;5032167;28;20206;-66
2024/03/28 11:08:57;;;;;;;1.95;0.88;;;16.70;57.40;;;;;;5032579;28;20642;-66
2024/03/28 11:11:23;;;;;;;0.68;0.68;;;16.70;57.40;;;;;;5031589;28;20179;-66
2024/03/28 11:13:48;;;;;;;1.10;0.73;;;16.70;57.40;;;;;;5031355;28;20230;-65
2024/03/28 11:16:15;;;;;;;0.73;0.60;;;16.70;57.40;;;;;;5030137;28;20164;-65
2024/03/28 11:18:42;;;;;;;0.90;0.77;;;16.70;57.40;;;;;;5030580;28;20195;-65
2024/03/28 11:21:07;;;;;;;0.43;0.43;;;16.60;57.40;;;;;;5030987;28;20251;-65
2024/03/28 11:23:33;;;;;;;0.68;0.68;;;16.60;57.50;;;;;;5032196;28;20264;-65
2024/03/28 11:26:06;;;;;;;1.52;1.05;;;16.60;57.50;;;;;;5031492;28;20195;-64
2024/03/28 11:28:32;;;;;;;0.50;0.50;;;16.70;57.60;;;;;;5032103;28;20180;-66
2024/03/28 11:30:57;;;;;;;0.85;0.85;;;16.70;57.50;;;;;;5032056;28;20168;-66
2024/03/28 11:33:33;;;;;;;0.65;0.65;;;16.70;57.40;;;;;;5031213;28;20207;-66
2024/03/28 11:36:03;;;;;;;0.88;0.57;;;16.70;57.40;;;;;;5032120;28;20181;-66
2024/03/28 11:38:29;;;;;;;0.70;0.70;;;16.70;57.50;;;;;;5031695;28;20219;-66
2024/03/28 11:40:54;;;;;;;0.77;0.70;;;16.70;57.40;;;;;;5031334;28;20267;-65
2024/03/28 11:43:23;;;;;;;0.75;0.75;;;16.70;57.40;;;;;;5031869;28;20198;-65
2024/03/28 11:45:53;;;;;;;0.88;0.68;;;16.70;58.10;;;;;;5031901;28;20693;-64
2024/03/28 11:48:22;;;;;;;1.45;0.80;;;16.70;57.40;;;;;;5030993;28;20673;-64
2024/03/28 11:50:48;;;;;;;1.70;1.10;;;16.60;57.50;;;;;;5031945;28;20701;-65
2024/03/28 11:53:15;;;;;;;1.20;0.73;;;16.60;57.60;;;;;;5031185;28;20888;-65
2024/03/28 11:55:42;;;;;;;1.20;0.70;;;16.60;57.60;;;;;;5031178;28;20267;-65
2024/03/28 11:58:18;;;;;;;0.60;0.60;;;16.70;57.70;;;;;;5031724;28;20267;-66
2024/03/28 12:00:44;;;;;;;0.60;0.60;;;16.70;58.20;;;;;;5031269;28;20172;-65
2024/03/28 12:03:10;;;;;;;0.68;0.68;;;16.70;57.50;;;;;;5031549;28;20179;-65
2024/03/28 12:05:36;;;;;;;1.65;0.80;;;16.70;57.40;;;;;;5031704;28;20202;-65
2024/03/28 12:08:02;;;;;;;1.60;0.98;;;16.70;57.40;;;;;;5031163;28;20188;-66
2024/03/28 12:10:28;;;;;;;0.98;0.90;;;16.70;57.40;;;;;;5031710;28;20187;-66
2024/03/28 12:12:53;;;;;;;1.23;1.08;;;16.70;57.40;;;;;;5031691;28;20600;-65
2024/03/28 12:15:19;;;;;;;1.30;0.88;;;16.70;57.40;;;;;;5030760;28;20180;-64
2024/03/28 12:17:44;;;;;;;1.70;0.98;;;16.70;57.50;;;;;;5031721;28;20613;-65
2024/03/28 12:20:11;;;;;;;1.40;0.90;;;16.80;57.50;;;;;;5031239;28;20178;-65
2024/03/28 12:22:37;;;;;;;0.98;0.90;;;16.80;57.40;;;;;;5030940;28;20262;-65
2024/03/28 12:25:12;;;;;;;0.80;0.80;;;16.80;57.30;;;;;;5031721;28;20234;-65
2024/03/28 12:27:38;;;;;;;1.00;1.00;;;16.90;57.30;;;;;;5034315;28;20206;-64
2024/03/28 12:30:05;;;;;;;0.85;0.82;;;17.00;57.20;;;;;;5034668;28;20186;-65
2024/03/28 12:32:31;;;;;;;0.82;0.82;;;17.00;57.10;;;;;;5035283;28;20180;-65
2024/03/28 12:34:56;;;;;;;0.70;0.70;;;17.00;57.00;;;;;;5034955;28;20344;-65
2024/03/28 12:37:22;;;;;;;1.10;0.90;;;17.00;57.00;;;;;;5034575;28;20251;-65
2024/03/28 12:39:48;;;;;;;1.02;0.93;;;17.00;57.00;;;;;;5035299;28;20314;-65
2024/03/28 12:42:25;;;;;;;1.08;0.98;;;17.00;57.00;;;;;;5034736;28;20227;-65
2024/03/28 12:44:50;;;;;;;1.10;0.70;;;17.00;57.00;;;;;;5034522;28;20195;-64
2024/03/28 12:47:16;;;;;;;1.10;0.90;;;17.10;57.10;;;;;;5034881;28;20176;-64
2024/03/28 12:49:42;;;;;;;1.10;0.80;;;17.10;57.00;;;;;;5034709;28;20176;-64